createdAt,value
2019-06-07T00:02:13.347Z,100758.38
2019-06-07T00:04:51.043Z,100763.94
2019-06-07T00:07:28.739Z,100766.00
2019-06-07T00:10:07.070Z,100766.05
2019-06-07T00:12:45.288Z,100773.42
2019-06-07T00:15:28.626Z,100776.47
2019-06-07T00:18:02.672Z,100771.81
2019-06-07T00:20:40.415Z,100770.02
2019-06-07T00:23:22.459Z,100770.05
2019-06-07T00:25:58.163Z,100785.14
2019-06-07T00:28:36.617Z,100777.48
2019-06-07T00:31:17.252Z,100779.09
2019-06-07T00:33:54.277Z,100777.77
2019-06-07T00:36:32.467Z,100775.59
2019-06-07T00:39:13.058Z,100788.08
2019-06-07T00:41:49.235Z,100788.95
2019-06-07T00:44:27.683Z,100786.09
2019-06-07T00:47:05.959Z,100787.70
2019-06-07T00:49:43.459Z,100778.12
2019-06-07T00:53:11.604Z,100795.26
2019-06-07T00:55:01.117Z,100793.85
2019-06-07T00:57:38.370Z,100798.91
2019-06-07T01:00:21.936Z,100811.72
2019-06-07T01:02:56.368Z,100814.70
2019-06-07T01:05:34.942Z,100810.89
2019-06-07T01:08:14.933Z,100811.30
2019-06-07T01:10:53.977Z,100802.20
2019-06-07T01:13:30.456Z,100808.78
2019-06-07T01:16:09.503Z,100804.42
2019-06-07T01:18:51.186Z,100808.88
2019-06-07T01:21:29.329Z,100811.09
2019-06-07T01:24:12.042Z,100814.44
2019-06-07T01:26:45.660Z,100810.32
2019-06-07T01:29:25.015Z,100813.55
2019-06-07T01:32:04.005Z,100813.72
2019-06-07T01:34:41.374Z,100821.13
2019-06-07T01:37:22.584Z,100805.44
2019-06-07T01:39:58.866Z,100810.03
2019-06-07T01:42:36.870Z,100807.38
2019-06-07T01:45:15.001Z,100813.29
2019-06-07T01:47:53.023Z,100817.41
2019-06-07T01:50:30.716Z,100817.08
2019-06-07T01:53:09.368Z,100823.86
2019-06-07T01:55:47.432Z,100822.69
2019-06-07T01:58:27.849Z,100834.98
2019-06-07T02:01:04.094Z,100842.20
2019-06-07T02:03:42.316Z,100846.66
2019-06-07T02:06:20.985Z,100838.48
2019-06-07T02:08:59.466Z,100847.33
2019-06-07T02:11:37.369Z,100846.81
2019-06-07T02:14:14.675Z,100857.53
2019-06-07T02:16:52.028Z,100864.20
2019-06-07T02:19:31.709Z,100869.97
2019-06-07T02:22:09.834Z,100865.53
2019-06-07T02:25:33.879Z,100864.27
2019-06-07T02:27:27.508Z,100865.03
2019-06-07T02:32:44.801Z,100862.58
2019-06-07T02:35:26.375Z,100862.38
2019-06-07T02:38:01.959Z,100852.60
2019-06-07T02:40:40.029Z,100851.74
2019-06-07T02:43:17.734Z,100854.09
2019-06-07T02:45:54.750Z,100854.65
2019-06-07T02:48:38.592Z,100848.62
2019-06-07T02:51:11.771Z,100860.13
2019-06-07T02:53:49.441Z,100857.44
2019-06-07T02:56:43.034Z,100863.30
2019-06-07T02:59:06.608Z,100866.22
2019-06-07T03:01:45.126Z,100867.89
2019-06-07T03:04:22.848Z,100875.61
2019-06-07T03:07:02.471Z,100875.28
2019-06-07T03:09:40.188Z,100873.03
2019-06-07T03:12:18.071Z,100879.10
2019-06-07T03:14:55.885Z,100879.23
2019-06-07T03:17:55.283Z,100878.92
2019-06-07T03:20:35.101Z,100878.02
2019-06-07T03:23:13.446Z,100880.59
2019-06-07T03:25:51.373Z,100874.25
2019-06-07T03:28:34.187Z,100875.05
2019-06-07T03:31:10.042Z,100879.49
2019-06-07T03:33:48.304Z,100876.66
2019-06-07T03:36:26.165Z,100876.98
2019-06-07T03:39:06.959Z,100875.20
2019-06-07T03:42:04.520Z,100875.02
2019-06-07T03:44:24.330Z,100872.25
2019-06-07T03:47:02.176Z,100867.59
2019-06-07T03:49:42.503Z,100859.54
2019-06-07T03:52:18.763Z,100853.53
2019-06-07T03:54:57.222Z,100855.46
2019-06-07T03:58:23.838Z,100851.16
2019-06-07T04:00:13.634Z,100854.98
2019-06-07T04:02:51.946Z,100850.95
2019-06-07T04:05:36.343Z,100851.39
2019-06-07T04:08:09.744Z,100848.54
2019-06-07T04:10:59.865Z,100850.67
2019-06-07T04:13:30.492Z,100848.26
2019-06-07T04:16:09.477Z,100848.03
2019-06-07T04:18:47.480Z,100842.56
2019-06-07T04:21:25.293Z,100845.41
2019-06-07T04:24:03.725Z,100846.45
2019-06-07T04:26:43.746Z,100843.31
2019-06-07T04:29:33.194Z,100837.48
2019-06-07T04:32:00.866Z,100838.80
2019-06-07T04:34:42.920Z,100821.71
2019-06-07T04:37:18.891Z,100825.45
2019-06-07T04:39:56.526Z,100828.72
2019-06-07T04:42:39.129Z,100826.50
2019-06-07T04:45:33.008Z,100820.45
2019-06-07T04:47:55.298Z,100818.94
2019-06-07T04:50:36.128Z,100819.64
2019-06-07T04:53:12.878Z,100819.52
2019-06-07T04:55:50.464Z,100806.20
2019-06-07T04:58:30.434Z,100798.20
2019-06-07T05:01:26.272Z,100808.26
2019-06-07T05:03:47.822Z,100799.39
2019-06-07T05:06:25.648Z,100793.89
2019-06-07T05:09:03.285Z,100799.66
2019-06-07T05:11:44.879Z,100789.02
2019-06-07T05:14:21.513Z,100792.53
2019-06-07T05:16:59.449Z,100780.09
2019-06-07T05:19:39.123Z,100776.41
2019-06-07T05:22:16.695Z,100776.19
2019-06-07T05:24:55.266Z,100769.36
2019-06-07T05:27:34.330Z,100766.05
2019-06-07T05:30:57.837Z,100761.47
2019-06-07T05:32:52.278Z,100758.39
2019-06-07T05:35:30.639Z,100763.58
2019-06-07T05:38:08.319Z,100755.64
2019-06-07T05:40:48.789Z,100745.33
2019-06-07T05:43:34.342Z,100747.06
2019-06-07T05:46:12.102Z,100735.25
2019-06-07T05:48:49.496Z,100735.97
2019-06-07T05:51:27.417Z,100727.80
2019-06-07T05:54:05.316Z,100733.17
2019-06-07T05:56:45.215Z,100728.14
2019-06-07T05:59:22.690Z,100724.61
2019-06-07T06:02:13.946Z,100728.12
2019-06-07T06:04:42.637Z,100715.77
2019-06-07T06:07:17.684Z,100710.45
2019-06-07T06:09:55.364Z,100713.70
2019-06-07T06:12:37.324Z,100717.64
2019-06-07T06:15:13.442Z,100725.83
2019-06-07T06:17:53.848Z,100719.48
2019-06-07T06:20:34.840Z,100711.81
2019-06-07T06:23:12.098Z,100702.42
2019-06-07T06:25:55.818Z,100699.67
2019-06-07T06:28:28.947Z,100690.98
2019-06-07T06:31:06.708Z,100688.56
2019-06-07T06:33:45.292Z,100682.16
2019-06-07T06:36:23.296Z,100674.65
2019-06-07T06:39:00.798Z,100676.91
2019-06-07T06:41:49.410Z,100667.32
2019-06-07T06:44:20.481Z,100672.38
2019-06-07T06:46:58.687Z,100668.30
2019-06-07T06:49:36.799Z,100670.13
2019-06-07T06:52:14.319Z,100673.20
2019-06-07T06:55:00.128Z,100673.38
2019-06-07T06:57:31.650Z,100657.49
2019-06-07T07:00:10.797Z,100660.77
2019-06-07T07:03:39.221Z,100655.39
2019-06-07T07:05:27.786Z,100654.64
2019-06-07T07:08:05.386Z,100650.10
2019-06-07T07:10:45.997Z,100639.38
2019-06-07T07:13:23.902Z,100648.62
2019-06-07T07:16:01.909Z,100652.67
2019-06-07T07:18:39.597Z,100652.52
2019-06-07T07:21:18.224Z,100657.66
2019-06-07T07:24:19.607Z,100637.30
2019-06-07T07:26:34.912Z,100653.06
2019-06-07T07:29:12.499Z,100664.67
2019-06-07T07:31:52.360Z,100673.19
2019-06-07T07:34:36.185Z,100687.34
2019-06-07T07:37:08.195Z,100704.91
2019-06-07T07:39:48.594Z,100710.81
2019-06-07T07:42:24.454Z,100723.30
2019-06-07T07:45:01.852Z,100713.62
2019-06-07T07:47:58.244Z,100711.17
2019-06-07T07:50:20.871Z,100712.11
2019-06-07T07:53:00.531Z,100710.25
2019-06-07T07:59:42.224Z,100700.67
2019-06-07T08:02:15.639Z,100708.44
2019-06-07T08:05:20.580Z,100694.43
2019-06-07T08:07:32.814Z,100673.81
2019-06-07T08:10:11.237Z,100648.92
2019-06-07T08:13:07.619Z,100637.97
2019-06-07T08:15:27.946Z,100628.43
2019-06-07T08:18:05.349Z,100623.14
2019-06-07T08:21:04.633Z,100647.12
2019-06-07T08:23:22.198Z,100646.05
2019-06-07T08:26:01.125Z,100630.54
2019-06-07T08:28:39.245Z,100627.84
2019-06-07T08:31:17.233Z,100619.86
2019-06-07T08:33:58.444Z,100625.64
2019-06-07T08:36:42.244Z,100633.78
2019-06-07T08:39:15.162Z,100626.98
2019-06-07T08:42:08.886Z,100630.28
2019-06-07T08:44:32.193Z,100616.81
2019-06-07T08:47:20.170Z,100588.55
2019-06-07T08:49:48.525Z,100568.77
2019-06-07T08:52:26.377Z,100567.53
2019-06-07T08:55:05.276Z,100562.37
2019-06-07T08:57:42.874Z,100568.27
2019-06-07T09:03:05.128Z,100582.52
2019-06-07T09:05:41.128Z,100583.29
2019-06-07T09:08:30.027Z,100583.30
2019-06-07T09:11:02.341Z,100584.74
2019-06-07T09:13:39.261Z,100579.95
2019-06-07T09:16:16.601Z,100577.45
2019-06-07T09:18:56.101Z,100576.34
2019-06-07T09:21:33.382Z,100577.20
2019-06-07T09:24:12.167Z,100572.64
2019-06-07T09:26:50.779Z,100558.23
2019-06-07T09:29:29.095Z,100541.98
2019-06-07T09:32:11.959Z,100535.09
2019-06-07T09:34:47.701Z,100523.09
2019-06-07T09:40:20.453Z,100523.42
2019-06-07T09:42:43.334Z,100513.92
2019-06-07T09:45:21.751Z,100503.84
2019-06-07T09:48:02.297Z,100503.33
2019-06-07T09:50:40.217Z,100497.80
2019-06-07T09:53:22.689Z,100495.05
2019-06-07T09:56:02.838Z,100491.62
2019-06-07T09:58:54.047Z,100480.31
2019-06-07T10:01:17.223Z,100480.31
2019-06-07T10:03:54.672Z,100488.53
2019-06-07T10:06:33.690Z,100486.03
2019-06-07T10:11:53.808Z,100476.46
2019-06-07T10:14:31.317Z,100472.95
2019-06-07T10:17:09.482Z,100468.54
2019-06-07T10:19:46.905Z,100471.71
2019-06-07T10:22:24.981Z,100478.02
2019-06-07T10:25:04.257Z,100485.33
2019-06-07T10:27:41.762Z,100488.47
2019-06-07T10:30:18.976Z,100493.45
2019-06-07T10:32:56.490Z,100509.22
2019-06-07T10:35:33.799Z,100511.12
2019-06-07T10:38:12.226Z,100519.11
2019-06-07T10:40:51.396Z,100520.18
2019-06-07T10:43:29.902Z,100529.21
2019-06-07T10:46:07.677Z,100526.50
2019-06-07T10:48:46.421Z,100533.62
2019-06-07T10:51:23.634Z,100536.73
2019-06-07T10:54:10.805Z,100555.98
2019-06-07T10:56:40.178Z,100559.16
2019-06-07T10:59:18.855Z,100551.46
2019-06-07T11:01:57.349Z,100554.33
2019-06-07T11:04:34.835Z,100564.70
2019-06-07T11:07:12.122Z,100556.29
2019-06-07T11:10:05.716Z,100564.52
2019-06-07T11:12:31.592Z,100566.80
2019-06-07T11:15:11.022Z,100568.47
2019-06-07T11:17:48.874Z,100576.58
2019-06-07T11:20:27.027Z,100587.92
2019-06-07T11:23:04.443Z,100587.91
2019-06-07T11:25:42.298Z,100597.94
2019-06-07T11:28:19.779Z,100595.36
2019-06-07T11:30:58.086Z,100595.24
2019-06-07T11:33:35.410Z,100599.25
2019-06-07T11:36:12.871Z,100608.61
2019-06-07T11:38:50.513Z,100609.34
2019-06-07T11:41:28.508Z,100613.64
2019-06-07T11:44:06.814Z,100617.94
2019-06-07T11:46:44.480Z,100621.08
2019-06-07T11:49:22.170Z,100620.13
2019-06-07T11:52:01.054Z,100626.23
2019-06-07T11:54:38.985Z,100633.45
2019-06-07T11:57:17.323Z,100626.78
2019-06-07T11:59:55.430Z,100625.18
2019-06-07T12:02:34.007Z,100620.20
2019-06-07T12:05:15.297Z,100625.47
2019-06-07T12:07:51.483Z,100637.94
2019-06-07T12:10:41.830Z,100646.11
2019-06-07T12:13:10.386Z,100647.43
2019-06-07T12:15:50.777Z,100654.52
2019-06-07T12:18:28.807Z,100651.42
2019-06-07T12:21:06.178Z,100645.75
2019-06-07T12:23:44.356Z,100652.08
2019-06-07T12:26:22.601Z,100653.80
2019-06-07T12:29:00.166Z,100662.02
2019-06-07T12:31:37.778Z,100660.36
2019-06-07T12:34:15.607Z,100664.83
2019-06-07T12:36:52.777Z,100663.63
2019-06-07T12:39:30.970Z,100672.55
2019-06-07T12:42:08.474Z,100663.34
2019-06-07T12:44:46.514Z,100662.97
2019-06-07T12:47:25.237Z,100667.44
2019-06-07T12:50:10.130Z,100674.73
2019-06-07T12:52:47.850Z,100675.47
2019-06-07T12:55:26.645Z,100674.87
2019-06-07T12:58:04.329Z,100687.63
2019-06-07T13:00:42.117Z,100690.76
2019-06-07T13:03:20.968Z,100697.86
2019-06-07T13:05:59.669Z,100699.91
2019-06-07T13:08:37.472Z,100705.27
2019-06-07T13:11:21.273Z,100713.53
2019-06-07T13:13:53.359Z,100720.89
2019-06-07T13:16:31.185Z,100739.52
2019-06-07T13:19:09.235Z,100738.93
2019-06-07T13:21:47.303Z,100732.41
2019-06-07T13:24:25.260Z,100724.13
2019-06-07T13:27:03.343Z,100727.14
2019-06-07T13:29:40.643Z,100730.23
2019-06-07T13:32:17.878Z,100722.58
2019-06-07T13:34:55.389Z,100722.19
2019-06-07T13:37:33.064Z,100725.81
2019-06-07T13:40:11.516Z,100733.37
2019-06-07T13:42:51.182Z,100740.50
2019-06-07T13:45:28.409Z,100737.84
2019-06-07T13:48:07.068Z,100734.64
2019-06-07T13:50:45.928Z,100751.91
2019-06-07T13:53:24.930Z,100751.26
2019-06-07T13:56:02.784Z,100759.09
2019-06-07T13:58:40.922Z,100765.86
2019-06-07T14:01:18.594Z,100771.44
2019-06-07T14:03:56.529Z,100765.77
2019-06-07T14:06:34.023Z,100779.55
2019-06-07T14:09:12.733Z,100768.19
2019-06-07T14:11:51.158Z,100775.08
2019-06-07T14:14:30.907Z,100778.80
2019-06-07T14:17:09.506Z,100793.33
2019-06-07T14:19:47.374Z,100786.10
2019-06-07T14:22:27.009Z,100789.55
2019-06-07T14:25:04.963Z,100798.62
2019-06-07T14:27:42.397Z,100800.28
2019-06-07T14:30:21.829Z,100798.98
2019-06-07T14:32:59.023Z,100799.79
2019-06-07T14:35:36.867Z,100809.56
2019-06-07T14:38:14.070Z,100816.63
2019-06-07T14:40:52.032Z,100824.58
2019-06-07T14:43:29.713Z,100819.02
2019-06-07T14:46:07.739Z,100823.32
2019-06-07T14:48:44.325Z,100818.78
2019-06-07T14:51:22.383Z,100816.71
2019-06-07T14:54:00.802Z,100833.02
2019-06-07T14:56:38.598Z,100839.60
2019-06-07T14:59:15.789Z,100834.31
2019-06-07T15:01:54.445Z,100840.87
2019-06-07T15:04:32.849Z,100836.32
2019-06-07T15:07:12.615Z,100833.33
2019-06-07T15:09:49.996Z,100835.46
2019-06-07T15:12:29.233Z,100835.46
2019-06-07T15:15:07.154Z,100831.66
2019-06-07T15:17:45.033Z,100829.93
2019-06-07T15:20:22.663Z,100825.85
2019-06-07T15:23:00.598Z,100830.82
2019-06-07T15:25:39.763Z,100810.34
2019-06-07T15:28:18.317Z,100819.98
2019-06-07T15:30:55.363Z,100807.88
2019-06-07T15:33:34.335Z,100811.00
2019-06-07T15:36:11.477Z,100813.97
2019-06-07T15:38:48.904Z,100822.81
2019-06-07T15:41:26.041Z,100819.06
2019-06-07T15:44:04.370Z,100827.41
2019-06-07T15:46:42.354Z,100829.02
2019-06-07T15:49:19.966Z,100833.01
2019-06-07T15:51:57.302Z,100827.83
2019-06-07T15:54:36.459Z,100828.62
2019-06-07T15:57:16.405Z,100829.91
2019-06-07T15:59:54.442Z,100837.49
2019-06-07T16:02:31.460Z,100834.73
2019-06-07T16:05:11.304Z,100828.30
2019-06-07T16:07:48.794Z,100836.13
2019-06-07T16:10:26.219Z,100838.84
2019-06-07T16:13:03.768Z,100823.92
2019-06-07T16:15:41.549Z,100820.51
2019-06-07T16:18:19.389Z,100819.64
2019-06-07T16:20:57.290Z,100816.12
2019-06-07T16:23:35.729Z,100816.70
2019-06-07T16:26:14.536Z,100823.25
2019-06-07T16:28:53.219Z,100816.03
2019-06-07T16:31:31.103Z,100828.14
2019-06-07T16:34:08.683Z,100821.65
2019-06-07T16:36:48.807Z,100820.09
2019-06-07T16:39:26.492Z,100813.85
2019-06-07T16:42:03.818Z,100818.75
2019-06-07T16:44:42.527Z,100825.02
2019-06-07T16:47:20.205Z,100820.28
2019-06-07T16:49:57.889Z,100828.37
2019-06-07T16:52:35.555Z,100824.58
2019-06-07T16:55:13.305Z,100817.47
2019-06-07T16:57:51.388Z,100832.58
2019-06-07T17:00:30.082Z,100824.77
2019-06-07T17:03:08.556Z,100827.41
2019-06-07T17:05:48.909Z,100816.97
2019-06-07T17:08:25.958Z,100816.80
2019-06-07T17:11:03.694Z,100811.45
2019-06-07T17:13:42.331Z,100806.48
2019-06-07T17:16:19.933Z,100805.62
2019-06-07T17:18:58.041Z,100803.44
2019-06-07T17:21:36.427Z,100798.50
2019-06-07T17:24:13.761Z,100805.94
2019-06-07T17:26:51.233Z,100768.98
2019-06-07T17:29:29.476Z,100785.23
2019-06-07T17:32:08.673Z,100783.14
2019-06-07T17:34:46.301Z,100778.36
2019-06-07T17:37:23.680Z,100774.73
2019-06-07T17:40:01.415Z,100792.63
2019-06-07T17:42:40.715Z,100784.33
2019-06-07T17:45:18.449Z,100790.81
2019-06-07T17:47:56.126Z,100780.13
2019-06-07T17:50:34.269Z,100774.27
2019-06-07T17:53:11.847Z,100769.08
2019-06-07T17:55:50.373Z,100772.86
2019-06-07T17:58:28.560Z,100768.66
2019-06-07T18:01:06.713Z,100766.36
2019-06-07T18:03:46.704Z,100762.33
2019-06-07T18:06:25.818Z,100759.77
2019-06-07T18:09:04.697Z,100757.66
2019-06-07T18:11:43.918Z,100752.01
2019-06-07T18:14:21.482Z,100747.50
2019-06-07T18:16:58.823Z,100739.10
2019-06-07T18:19:36.206Z,100740.30
2019-06-07T18:22:14.910Z,100735.83
2019-06-07T18:24:52.797Z,100742.55
2019-06-07T18:27:29.982Z,100741.81
2019-06-07T18:30:11.734Z,100746.84
2019-06-07T18:32:48.710Z,100749.42
2019-06-07T18:35:26.967Z,100750.31
2019-06-07T18:38:04.575Z,100741.84
2019-06-07T18:40:42.649Z,100739.72
2019-06-07T18:43:20.993Z,100735.26
2019-06-07T18:45:58.400Z,100734.88
2019-06-07T18:48:36.317Z,100737.06
2019-06-07T18:51:14.202Z,100735.34
2019-06-07T18:53:53.707Z,100730.18
2019-06-07T18:56:31.124Z,100718.49
2019-06-07T18:59:08.505Z,100702.80
2019-06-07T19:01:47.244Z,100711.55
2019-06-07T19:04:26.396Z,100695.49
2019-06-07T19:07:08.773Z,100699.02
2019-06-07T19:09:48.534Z,100697.02
2019-06-07T19:12:26.292Z,100690.60
2019-06-07T19:15:05.168Z,100698.72
2019-06-07T19:17:42.569Z,100694.18
2019-06-07T19:20:20.197Z,100683.47
2019-06-07T19:22:58.427Z,100679.43
2019-06-07T19:25:36.519Z,100681.05
2019-06-07T19:28:13.527Z,100675.62
2019-06-07T19:30:51.185Z,100674.95
2019-06-07T19:33:28.757Z,100672.91
2019-06-07T19:36:06.264Z,100673.94
2019-06-07T19:38:44.869Z,100666.53
2019-06-07T19:41:22.597Z,100662.67
2019-06-07T19:44:00.415Z,100670.17
2019-06-07T19:46:38.629Z,100666.93
2019-06-07T19:49:16.227Z,100665.05
2019-06-07T19:51:54.899Z,100660.17
2019-06-07T19:54:32.274Z,100663.61
2019-06-07T19:57:11.280Z,100659.59
2019-06-07T19:59:48.303Z,100654.59
2019-06-07T20:02:26.048Z,100647.78
2019-06-07T20:05:06.538Z,100649.02
2019-06-07T20:07:43.835Z,100639.38
2019-06-07T20:10:22.529Z,100641.59
2019-06-07T20:13:00.811Z,100643.86
2019-06-07T20:15:38.150Z,100629.84
2019-06-07T20:18:16.219Z,100649.44
2019-06-07T20:20:53.769Z,100643.53
2019-06-07T20:23:31.543Z,100644.39
2019-06-07T20:26:08.951Z,100646.72
2019-06-07T20:28:46.800Z,100651.69
2019-06-07T20:31:24.318Z,100651.41
2019-06-07T20:34:04.214Z,100653.52
2019-06-07T20:36:41.232Z,100653.52
2019-06-07T20:39:19.003Z,100651.50
2019-06-07T20:41:57.763Z,100652.57
2019-06-07T20:44:36.152Z,100653.34
2019-06-07T20:47:13.576Z,100661.91
2019-06-07T20:49:51.442Z,100664.58
2019-06-07T20:52:29.959Z,100660.19
2019-06-07T20:55:09.116Z,100660.04
2019-06-07T20:57:46.580Z,100661.52
2019-06-07T21:00:25.062Z,100656.73
2019-06-07T21:03:03.235Z,100651.08
2019-06-07T21:05:41.234Z,100656.27
2019-06-07T21:08:19.701Z,100661.09
2019-06-07T21:10:57.698Z,100665.50
2019-06-07T21:13:35.855Z,100670.38
2019-06-07T21:16:13.608Z,100663.48
2019-06-07T21:18:51.294Z,100662.45
2019-06-07T21:21:29.305Z,100653.73
2019-06-07T21:24:06.829Z,100651.94
2019-06-07T21:26:44.727Z,100666.23
2019-06-07T21:29:22.010Z,100654.55
2019-06-07T21:32:01.282Z,100655.05
2019-06-07T21:34:38.834Z,100657.99
2019-06-07T21:37:16.623Z,100655.02
2019-06-07T21:39:54.284Z,100658.69
2019-06-07T21:42:32.105Z,100665.70
2019-06-07T21:45:11.856Z,100671.36
2019-06-07T21:47:49.677Z,100680.63
2019-06-07T21:50:26.362Z,100679.77
2019-06-07T21:53:04.617Z,100685.41
2019-06-07T21:55:42.777Z,100693.41
2019-06-07T21:58:20.106Z,100694.43
2019-06-07T22:01:23.177Z,100692.71
2019-06-07T22:04:01.116Z,100696.79
2019-06-07T22:06:38.932Z,100697.31
2019-06-07T22:09:17.158Z,100700.91
2019-06-07T22:11:55.451Z,100700.72
2019-06-07T22:14:34.011Z,100702.12
2019-06-07T22:17:12.459Z,100687.17
2019-06-07T22:19:50.214Z,100683.30
2019-06-07T22:22:28.047Z,100686.16
2019-06-07T22:25:06.927Z,100697.04
2019-06-07T22:27:44.327Z,100694.30
2019-06-07T22:30:21.447Z,100694.30
2019-06-07T22:32:58.858Z,100693.05
2019-06-07T22:35:38.002Z,100695.16
2019-06-07T22:38:14.951Z,100693.56
2019-06-07T22:40:52.983Z,100693.32
2019-06-07T22:43:30.463Z,100693.16
2019-06-07T22:46:08.690Z,100691.99
2019-06-07T22:48:47.479Z,100683.41
2019-06-07T22:51:25.524Z,100691.99
2019-06-07T22:54:02.506Z,100699.23
2019-06-07T22:56:54.446Z,100691.49
2019-06-07T22:59:32.106Z,100694.87
2019-06-07T23:02:10.417Z,100683.81
2019-06-07T23:04:48.155Z,100683.80
2019-06-07T23:07:27.188Z,100687.02
2019-06-07T23:10:05.518Z,100687.02
2019-06-07T23:12:43.935Z,100681.62
2019-06-07T23:15:21.485Z,100686.08
2019-06-07T23:17:59.346Z,100698.13
2019-06-07T23:20:38.910Z,100702.67
2019-06-07T23:23:17.326Z,100699.23
2019-06-07T23:25:54.493Z,100704.16
2019-06-07T23:28:32.331Z,100711.59
2019-06-07T23:31:10.408Z,100711.17
2019-06-07T23:33:47.903Z,100715.21
2019-06-07T23:36:25.277Z,100718.41
2019-06-07T23:39:03.650Z,100732.78
2019-06-07T23:41:40.503Z,100735.53
2019-06-07T23:44:19.319Z,100739.72
2019-06-07T23:47:10.393Z,100738.46
2019-06-07T23:49:36.869Z,100739.67
2019-06-07T23:52:15.748Z,100748.45
2019-06-07T23:54:53.433Z,100733.72
2019-06-07T23:57:30.902Z,100752.41
